Flight Track Log - Related Links

Times and Time Zones

All times are in EDT time to prevent confusion due to time zone crossing. See the SWA558 flight status page for this flight to view local times or setup timezone preferences in your user account.

Time Position Orientation Groundspeed Altitude Reporting Facility
EDT Latitude Longitude Course Direction KTS MPH feet Rate Location/Type
Fri 03:58:10 PM 41.7667 -87.7667 228° Southwest 144 166 2,000  Level Chicago TRACON
Fri 03:59:10 PM 41.7333 -87.8167 228° Southwest 201 231 4,700 2,407 Climbing Chicago TRACON
Fri 04:00:57 PM 41.6442 -87.9086 218° Southwest 249 287 8,700 1,988 Climbing Chicago Center
Fri 04:01:59 PM 41.5894 -87.9694 220° Southwest 257 296 10,300 1,597 Climbing Chicago Center
Fri 04:03:01 PM 41.5211 -88.0406 218° Southwest 262 302 12,000 1,161 Climbing Chicago Center
Fri 04:04:03 PM 41.4433 -88.0817 202° Southwest 306 352 12,700 1,306 Climbing Chicago Center
Fri 04:05:05 PM 41.3578 -88.1264 201° Southwest 334 384 14,700 1,548 Climbing Chicago Center
Fri 04:06:07 PM 41.2442 -88.1864 202° Southwest 367 422 15,900 1,403 Climbing Chicago Center
Fri 04:07:09 PM 41.1464 -88.2378 202° Southwest 376 433 17,600 1,016 Climbing Chicago Center
Fri 04:08:11 PM 41.0472 -88.2894 201° Southwest 382 440 18,000 629 Climbing Chicago Center
Fri 04:09:13 PM 40.9483 -88.3414 202° Southwest 384 442 18,900 1,790 Climbing Chicago Center
Fri 04:10:15 PM 40.8464 -88.3950 202° Southwest 393 452 21,700 2,806 Climbing Chicago Center
Fri 04:11:17 PM 40.7211 -88.4586 201° Southwest 403 464 24,700 2,468 Climbing Chicago Center
Fri 04:12:19 PM 40.6139 -88.5139 201° Southwest 412 474 26,800 1,935 Climbing Chicago Center
Fri 04:13:21 PM 40.5042 -88.5706 201° Southwest 424 488 28,700 2,016 Climbing Chicago Center
Fri 04:14:24 PM 40.4017 -88.6233 201° Southwest 426 490 31,000 1,584 Climbing Chicago Center
Fri 04:15:26 PM 40.2847 -88.7061 208° Southwest 399 459 32,000 484 Climbing Chicago Center
Fri 04:16:28 PM 40.2100 -88.8044 225° Southwest 383 441 32,000  Level Chicago Center
Fri 04:17:30 PM 40.1336 -88.9003 224° Southwest 381 438 32,000  Level Chicago Center
Fri 04:18:24 PM 40.0719 -88.9781 224° Southwest 379 436 32,000 864 Level Kansas City Center
Fri 04:19:28 PM 39.9967 -89.0739 224° Southwest 377 434 33,700 1,920 Climbing Kansas City Center
Fri 04:20:29 PM 39.9100 -89.1839 224° Southwest 366 421 36,000 1,548 Climbing Kansas City Center
Fri 04:21:32 PM 39.8386 -89.2719 223° Southwest 358 412 36,900 960 Climbing Kansas City Center
Fri 04:22:34 PM 39.7653 -89.3642 224° Southwest 362 417 38,000 541 Climbing Kansas City Center
Fri 04:23:34 PM 39.6919 -89.4572 224° Southwest 365 420 38,000  Level Kansas City Center
Fri 04:24:37 PM 39.6194 -89.5494 224° Southwest 366 421 38,000  Level Kansas City Center
Fri 04:25:38 PM 39.5469 -89.6414 224° Southwest 366 421 38,000  Level Kansas City Center
Fri 04:26:40 PM 39.4731 -89.7306 223° Southwest 364 419 38,000  Level Kansas City Center
Fri 04:27:43 PM 39.3858 -89.8394 224° Southwest 364 419 38,000  Level Kansas City Center
Fri 04:28:45 PM 39.3128 -89.9297 224° Southwest 364 419 38,000  Level Kansas City Center
Fri 04:29:46 PM 39.2408 -90.0186 224° Southwest 361 415 38,000  Level Kansas City Center
Fri 04:30:49 PM 39.1681 -90.1081 224° Southwest 362 417 38,000  Level Kansas City Center
Fri 04:31:50 PM 39.0900 -90.1906 219° Southwest 363 418 38,000  Level Kansas City Center
Fri 04:32:54 PM 38.9939 -90.2889 219° Southwest 368 423 38,000  Level Kansas City Center
Fri 04:33:54 PM 38.9217 -90.3631 219° Southwest 366 421 38,000  Level Kansas City Center
Fri 04:34:58 PM 38.8417 -90.4472 219° Southwest 368 423 38,000  Level Kansas City Center
Fri 04:35:58 PM 38.7403 -90.5442 217° Southwest 373 429 38,000  Level Kansas City Center
Fri 04:37:02 PM 38.6600 -90.6261 219° Southwest 366 421 38,000  Level Kansas City Center
Fri 04:38:02 PM 38.5794 -90.7089 219° Southwest 371 427 38,000  Level Kansas City Center
Fri 04:39:05 PM 38.4972 -90.7942 219° Southwest 379 436 38,000  Level Kansas City Center
Fri 04:40:06 PM 38.4061 -90.8836 218° Southwest 371 427 38,000  Level Kansas City Center
Fri 04:41:10 PM 38.3367 -90.9533 218° Southwest 370 426 38,000  Level Kansas City Center
Fri 04:42:10 PM 38.2544 -91.0361 218° Southwest 377 434 38,000  Level Kansas City Center
Fri 04:43:14 PM 38.1519 -91.1394 218° Southwest 379 436 38,000  Level Kansas City Center
Fri 04:44:14 PM 38.0661 -91.2225 217° Southwest 384 442 38,000  Level Kansas City Center
Fri 04:45:18 PM 37.9817 -91.3058 218° Southwest 382 440 38,000  Level Kansas City Center
Fri 04:46:19 PM 37.8994 -91.3894 219° Southwest 378 435 38,000  Level Kansas City Center
Fri 04:47:23 PM 37.8142 -91.4731 218° Southwest 383 441 38,000  Level Kansas City Center
Fri 04:48:24 PM 37.7297 -91.5567 218° Southwest 383 441 38,000  Level Kansas City Center
Fri 04:49:24 PM 37.6450 -91.6408 218° Southwest 383 441 38,000  Level Kansas City Center
Fri 04:50:28 PM 37.5583 -91.7244 217° Southwest 386 444 38,000  Level Kansas City Center
Fri 04:51:28 PM 37.4564 -91.8261 218° Southwest 386 444 38,000  Level Kansas City Center
Fri 04:52:32 PM 37.3681 -91.9111 217° Southwest 392 451 38,000  Level Kansas City Center
Fri 04:53:33 PM 37.2803 -91.9958 218° Southwest 394 453 38,000  Level Kansas City Center
Fri 04:54:36 PM 37.1928 -92.0819 218° Southwest 395 455 38,000  Level Kansas City Center
Fri 04:55:37 PM 37.1053 -92.1686 218° Southwest 397 457 38,000  Level Kansas City Center
Fri 04:56:41 PM 37.0164 -92.2528 217° Southwest 397 457 38,000  Level Kansas City Center
Fri 04:57:42 PM 36.9286 -92.3369 217° Southwest 395 455 38,000  Level Kansas City Center
Fri 04:58:46 PM 36.8406 -92.4217 218° Southwest 397 457 38,000  Level Kansas City Center
Fri 04:59:09 PM 36.7869 -92.4736 218° Southwest 400 460 38,000  Level Memphis Center
Fri 05:00:09 PM 36.7022 -92.5542 217° Southwest 400 460 38,000  Level Memphis Center
Fri 05:01:09 PM 36.6131 -92.6394 218° Southwest 400 460 38,000  Level Memphis Center
Fri 05:02:09 PM 36.5239 -92.7222 217° Southwest 400 460 38,000  Level Memphis Center
Fri 05:03:09 PM 36.4414 -92.7972 216° Southwest 400 460 38,000  Level Memphis Center
Fri 05:04:09 PM 36.3519 -92.8797 217° Southwest 400 460 38,000  Level Memphis Center
Fri 05:05:09 PM 36.2628 -92.9669 218° Southwest 400 460 38,000  Level Memphis Center
Fri 05:06:09 PM 36.1736 -93.0439 215° Southwest 400 460 38,000  Level Memphis Center
Fri 05:07:09 PM 36.0861 -93.1308 219° Southwest 405 466 38,000  Level Memphis Center
Fri 05:08:09 PM 35.9989 -93.2100 216° Southwest 400 460 38,000  Level Memphis Center
Fri 05:09:09 PM 35.9072 -93.2967 217° Southwest 400 460 38,000  Level Memphis Center
Fri 05:10:09 PM 35.8197 -93.3781 217° Southwest 400 460 38,000  Level Memphis Center
Fri 05:11:09 PM 35.7322 -93.4567 216° Southwest 400 460 38,000  Level Memphis Center
Fri 05:12:09 PM 35.6447 -93.5375 217° Southwest 400 460 38,000  Level Memphis Center
Fri 05:13:09 PM 35.5553 -93.6158 215° Southwest 400 460 38,000  Level Memphis Center
Fri 05:14:09 PM 35.4675 -93.6992 218° Southwest 400 460 38,000  Level Memphis Center
Fri 05:15:09 PM 35.3797 -93.7769 216° Southwest 400 460 38,000  Level Memphis Center
Fri 05:16:09 PM 35.2900 -93.8572 216° Southwest 400 460 38,000  Level Memphis Center
Fri 05:17:09 PM 35.2042 -93.9375 217° Southwest 400 460 38,000  Level Memphis Center
Fri 05:18:09 PM 35.1122 -94.0175 215° Southwest 400 460 38,000  Level Memphis Center
Fri 05:20:07 PM 34.9411 -94.1767 217° Southwest 393 452 38,000  Level Fort Worth Center
Fri 05:21:07 PM 34.8536 -94.2583 217° Southwest 399 459 38,000  Level Fort Worth Center
Fri 05:22:07 PM 34.7656 -94.3322 215° Southwest 399 459 38,000  Level Fort Worth Center
Fri 05:23:07 PM 34.6758 -94.4139 217° Southwest 406 467 38,000  Level Fort Worth Center
Fri 05:24:07 PM 34.5858 -94.4928 216° Southwest 406 467 38,000  Level Fort Worth Center
Fri 05:25:07 PM 34.4981 -94.5739 217° Southwest 406 467 38,000  Level Fort Worth Center
Fri 05:26:07 PM 34.4081 -94.6547 217° Southwest 406 467 38,000  Level Fort Worth Center
Fri 05:27:07 PM 34.3200 -94.7306 215° Southwest 406 467 38,000  Level Fort Worth Center
Fri 05:28:07 PM 34.2297 -94.8086 216° Southwest 401 461 38,000  Level Fort Worth Center
Fri 05:29:07 PM 34.1397 -94.8892 217° Southwest 401 461 38,000  Level Fort Worth Center
Fri 05:30:07 PM 34.0514 -94.9669 216° Southwest 401 461 38,000  Level Fort Worth Center
Fri 05:31:07 PM 33.9653 -95.0394 215° Southwest 401 461 38,000  Level Fort Worth Center
Fri 05:32:07 PM 33.8750 -95.1194 216° Southwest 401 461 38,000  Level Fort Worth Center
Fri 05:33:07 PM 33.7864 -95.1942 215° Southwest 407 468 38,000  Level Fort Worth Center
Fri 05:34:07 PM 33.6961 -95.2714 215° Southwest 407 468 38,000  Level Fort Worth Center
Fri 05:35:07 PM 33.6117 -95.3458 216° Southwest 400 460 38,000  Level Fort Worth Center
Fri 05:36:07 PM 33.5189 -95.4228 215° Southwest 400 460 38,000  Level Fort Worth Center
Fri 05:37:07 PM 33.4303 -95.4969 215° Southwest 400 460 38,000  Level Fort Worth Center
Fri 05:38:07 PM 33.3439 -95.5733 216° Southwest 400 460 38,000  Level Fort Worth Center
Fri 05:39:07 PM 33.2492 -95.6547 216° Southwest 394 453 38,000  Level Fort Worth Center
Fri 05:40:07 PM 33.1625 -95.7286 216° Southwest 389 448 38,000  Level Fort Worth Center
Fri 05:41:07 PM 33.0756 -95.7994 214° Southwest 389 448 38,000  Level Fort Worth Center
Fri 05:42:07 PM 32.9847 -95.8756 215° Southwest 389 448 38,000  Level Fort Worth Center
Fri 05:43:07 PM 32.8981 -95.9511 216° Southwest 394 453 38,000  Level Fort Worth Center
Fri 05:44:07 PM 32.8194 -96.0167 215° Southwest 399 459 38,000  Level Fort Worth Center
Fri 05:45:07 PM 32.7347 -96.0897 216° Southwest 393 452 38,000  Level Fort Worth Center
Fri 05:46:07 PM 32.6456 -96.1600 214° Southwest 393 452 38,000  Level Fort Worth Center
Fri 05:47:07 PM 32.5564 -96.2353 215° Southwest 393 452 38,000  Level Fort Worth Center
Fri 05:48:07 PM 32.4694 -96.3103 216° Southwest 393 452 38,000  Level Fort Worth Center
Fri 05:49:07 PM 32.3700 -96.3925 215° Southwest 393 452 38,000  Level Fort Worth Center
Fri 05:50:07 PM 32.2808 -96.4650 215° Southwest 393 452 38,000  Level Fort Worth Center
Fri 05:51:07 PM 32.1917 -96.5394 215° Southwest 393 452 38,000 -200 Level Fort Worth Center
Fri 05:52:07 PM 32.1003 -96.6139 215° Southwest 399 459 37,600 -700 Descending Fort Worth Center
Fri 05:53:07 PM 32.0108 -96.6906 216° Southwest 399 459 36,600 -950 Descending Fort Worth Center
Fri 05:54:07 PM 31.9214 -96.7647 215° Southwest 393 452 35,700 -950 Descending Fort Worth Center
Fri 05:55:07 PM 31.8300 -96.8411 215° Southwest 403 464 34,700 -1,700 Descending Fort Worth Center
Fri 05:56:07 PM 31.7364 -96.9175 215° Southwest 408 470 32,300 -2,400 Descending Fort Worth Center
Fri 05:57:07 PM 31.6406 -96.9961 215° Southwest 415 478 29,900 -2,550 Descending Fort Worth Center
Fri 05:58:07 PM 31.5386 -97.0744 213° Southwest 432 497 27,200 -2,779 Descending Fort Worth Center
Fri 05:59:23 PM 31.4025 -97.1347 201° Southwest 439 505 23,600 -2,783 Descending Houston Center
Fri 06:00:25 PM 31.2886 -97.1778 198° South 432 497 20,800 -1,742 Descending Houston Center
Fri 06:01:27 PM 31.1800 -97.2211 199° South 415 478 20,000 -768 Descending Houston Center
Fri 06:02:30 PM 31.0700 -97.2636 198° South 358 412 19,200 -912 Descending Houston Center
Fri 06:03:32 PM 30.9761 -97.3017 199° South 360 414 18,100 -2,129 Descending Houston Center
Fri 06:04:34 PM 30.8792 -97.3369 197° South 370 426 14,800 -2,177 Descending Houston Center
Fri 06:05:36 PM 30.7839 -97.3739 198° South 362 417 13,600 -1,597 Descending Houston Center
Fri 06:06:38 PM 30.6981 -97.4358 212° Southwest 317 365 11,500 -1,742 Descending Houston Center
Fri 06:07:40 PM 30.6300 -97.4992 219° Southwest 310 357 10,000 -1,161 Descending Houston Center
Fri 06:08:42 PM 30.5697 -97.5556 219° Southwest 287 330 9,100 -1,258 Descending Houston Center
Fri 06:09:44 PM 30.5097 -97.6003 213° Southwest 262 302 7,400 -1,488 Descending Houston Center
Fri 06:10:47 PM 30.4475 -97.6311 203° Southwest 244 281 6,000 -1,584 Descending Houston Center
Fri 06:11:49 PM 30.3931 -97.6636 207° Southwest 226 260 4,100 -1,161 Descending Houston Center
Fri 06:12:51 PM 30.3414 -97.6611 178° South 190 219 3,600 -968 Descending Houston Center
Fri 06:13:53 PM 30.2869 -97.6592 178° South 170 196 2,100 -1,452 Descending Houston Center

Login

Don't have an account? Register now (free) for customized features, flight alerts, and more!